Time;durP1;ratioP1;P1;durP2;ratioP2;P2;SDS_P1;SDS_P2;PMS_P1;PMS_P2;Temp;Humidity;BMP_temperature;BMP_pressure;BME280_temperature;BME280_humidity;BME280_pressure;Samples;Min_cycle;Max_cycle;Signal;HPM_P1;HPM_P2
2023/12/10 16:58:06;;;;;;;40.58;19.17;;;2.40;99.90;;;;;;4996092;27;2294922;-49
2023/12/10 17:00:32;;;;;;;51.17;22.30;;;2.30;99.90;;;;;;5045254;28;20043;-49
2023/12/10 17:02:58;;;;;;;62.75;25.33;;;2.30;99.90;;;;;;5063610;28;20028;-50
2023/12/10 17:05:23;;;;;;;53.95;25.13;;;2.30;99.90;;;;;;5063589;28;20743;-50
2023/12/10 17:07:49;;;;;;;58.05;26.02;;;2.30;99.90;;;;;;5063163;28;20112;-49
2023/12/10 17:10:15;;;;;;;55.42;25.25;;;2.30;99.90;;;;;;5062949;28;20021;-51
2023/12/10 17:12:43;;;;;;;74.03;30.23;;;2.40;99.90;;;;;;5062668;28;20531;-48
2023/12/10 17:15:09;;;;;;;68.60;32.00;;;2.40;99.90;;;;;;5063327;28;20029;-52
2023/12/10 17:17:34;;;;;;;79.13;33.78;;;2.40;99.90;;;;;;5062322;28;20048;-52
2023/12/10 17:20:00;;;;;;;63.40;27.73;;;2.30;99.90;;;;;;5062904;28;20443;-50
2023/12/10 17:22:26;;;;;;;49.25;23.52;;;2.40;99.90;;;;;;5063102;28;20107;-51
2023/12/10 17:24:54;;;;;;;53.15;25.25;;;2.40;99.90;;;;;;5062663;28;20025;-51
2023/12/10 17:27:22;;;;;;;46.08;23.58;;;2.40;99.90;;;;;;5062613;28;20039;-47
2023/12/10 17:29:48;;;;;;;47.63;24.20;;;2.40;99.90;;;;;;5062556;28;20501;-53
2023/12/10 17:32:14;;;;;;;43.85;21.38;;;2.40;99.90;;;;;;5062708;28;20036;-49
2023/12/10 17:34:39;;;;;;;45.53;20.90;;;2.50;99.90;;;;;;5062434;28;20032;-53
2023/12/10 17:37:05;;;;;;;40.28;20.67;;;2.50;99.90;;;;;;5069502;28;20392;-52
2023/12/10 17:39:31;;;;;;;46.42;21.05;;;2.50;99.90;;;;;;5083037;28;20353;-51
2023/12/10 17:41:56;;;;;;;40.45;19.92;;;2.50;99.90;;;;;;5082885;28;20599;-50
2023/12/10 17:44:22;;;;;;;44.90;22.75;;;2.50;99.90;;;;;;5082602;28;20621;-48
2023/12/10 17:46:48;;;;;;;47.50;23.05;;;2.50;99.90;;;;;;5082546;28;20767;-52
2023/12/10 17:49:13;;;;;;;47.03;20.88;;;2.50;99.90;;;;;;5082944;28;20803;-47
2023/12/10 17:51:39;;;;;;;48.47;23.13;;;2.50;99.90;;;;;;5082665;28;20088;-49
2023/12/10 17:54:05;;;;;;;42.50;21.17;;;2.50;99.90;;;;;;5082847;28;20032;-50
2023/12/10 17:56:31;;;;;;;50.42;24.17;;;2.50;99.90;;;;;;5082435;28;20112;-50
2023/12/10 17:58:57;;;;;;;50.42;26.20;;;2.50;99.90;;;;;;5082798;28;20028;-51
2023/12/10 18:01:23;;;;;;;53.95;25.63;;;2.50;99.90;;;;;;5082505;28;20428;-50
2023/12/10 18:03:49;;;;;;;63.65;26.75;;;2.50;99.90;;;;;;5066946;28;20124;-52
2023/12/10 18:06:15;;;;;;;50.28;23.75;;;2.50;99.90;;;;;;5060938;28;20060;-49
2023/12/10 18:08:41;;;;;;;50.00;22.20;;;2.50;99.90;;;;;;5052227;28;20039;-52
2023/12/10 18:11:06;;;;;;;41.30;20.10;;;2.60;99.90;;;;;;5048957;28;20033;-52
2023/12/10 18:13:32;;;;;;;34.53;17.77;;;2.60;99.90;;;;;;5051247;28;20357;-53
2023/12/10 18:15:58;;;;;;;38.05;18.63;;;2.60;99.90;;;;;;5051323;28;20102;-53
2023/12/10 18:18:23;;;;;;;38.83;19.17;;;2.60;99.90;;;;;;5050732;28;20029;-50
2023/12/10 18:20:49;;;;;;;42.97;19.98;;;2.60;99.90;;;;;;5050195;28;20029;-51
2023/12/10 18:23:15;;;;;;;45.78;20.65;;;2.60;99.90;;;;;;5050171;28;20029;-49
2023/12/10 18:25:41;;;;;;;49.65;23.52;;;2.60;99.90;;;;;;5032746;28;20037;-53
2023/12/10 18:28:06;;;;;;;49.50;21.15;;;2.60;99.90;;;;;;5050021;28;20478;-50
2023/12/10 18:30:33;;;;;;;41.58;20.35;;;2.60;99.90;;;;;;5055569;28;20017;-53
2023/12/10 18:32:58;;;;;;;47.15;21.10;;;2.60;99.90;;;;;;5060597;28;20029;-52
2023/12/10 18:35:24;;;;;;;41.40;20.70;;;2.60;99.90;;;;;;5052986;28;20033;-52
2023/12/10 18:37:52;;;;;;;46.35;21.80;;;2.60;99.90;;;;;;5048146;28;20407;-53
2023/12/10 18:40:17;;;;;;;49.83;21.80;;;2.60;99.90;;;;;;5047962;28;20127;-52
2023/12/10 18:42:46;;;;;;;55.22;24.95;;;2.60;99.90;;;;;;5047802;28;20047;-51
2023/12/10 18:45:12;;;;;;;47.13;22.27;;;2.60;99.90;;;;;;5047959;28;20051;-52
2023/12/10 18:47:38;;;;;;;41.37;20.37;;;2.60;99.90;;;;;;5047618;28;20048;-54
2023/12/10 18:50:05;;;;;;;54.28;23.40;;;2.60;99.90;;;;;;5047881;28;20025;-50
2023/12/10 18:52:30;;;;;;;45.28;21.75;;;2.60;99.90;;;;;;5046837;28;20086;-53
2023/12/10 18:54:56;;;;;;;42.20;20.73;;;2.60;99.90;;;;;;5047945;28;20036;-51
2023/12/10 18:57:22;;;;;;;48.47;23.42;;;2.60;99.90;;;;;;5047320;28;20064;-51
2023/12/10 18:59:48;;;;;;;50.97;21.65;;;2.60;99.90;;;;;;5049867;28;20028;-50
2023/12/10 19:02:13;;;;;;;52.20;21.90;;;2.70;99.90;;;;;;5047650;28;20096;-48
2023/12/10 19:04:39;;;;;;;45.15;20.63;;;2.70;99.90;;;;;;5056995;28;20103;-48
2023/12/10 19:07:05;;;;;;;47.28;20.80;;;2.70;99.90;;;;;;5055240;28;20017;-50
2023/12/10 19:09:31;;;;;;;42.22;20.58;;;2.70;99.90;;;;;;5036977;28;20097;-53
2023/12/10 19:11:57;;;;;;;44.72;20.95;;;2.70;99.90;;;;;;5057661;28;20147;-47
2023/12/10 19:14:23;;;;;;;49.03;21.05;;;2.70;99.90;;;;;;5057526;28;20036;-49
2023/12/10 19:16:50;;;;;;;43.50;20.42;;;2.70;99.90;;;;;;5055879;28;20032;-49
2023/12/10 19:19:16;;;;;;;;;;;2.70;99.90;;;;;;5055447;28;20763;-53
2023/12/10 19:21:41;;;;;;;45.47;20.83;;;2.60;99.90;;;;;;5057277;28;19908;-51
2023/12/10 19:24:07;;;;;;;46.60;21.88;;;2.60;99.90;;;;;;5056361;28;20876;-49
2023/12/10 19:26:33;;;;;;;50.80;22.25;;;2.70;99.90;;;;;;5055497;28;20135;-51
2023/12/10 19:28:58;;;;;;;52.83;22.50;;;2.70;99.90;;;;;;5057255;28;20044;-53
2023/12/10 19:31:25;;;;;;;55.20;22.15;;;2.70;99.90;;;;;;5056123;28;20139;-52
2023/12/10 19:33:53;;;;;;;58.35;23.83;;;2.70;99.90;;;;;;5038984;28;20066;-52
2023/12/10 19:36:19;;;;;;;55.83;23.98;;;2.70;99.90;;;;;;5039292;28;20038;-53
2023/12/10 19:38:46;;;;;;;54.80;24.65;;;2.70;99.90;;;;;;5055332;28;20075;-49
2023/12/10 19:41:14;;;;;;;52.78;24.58;;;2.70;99.90;;;;;;5056317;28;20025;-52
2023/12/10 19:43:40;;;;;;;53.75;24.98;;;2.70;99.90;;;;;;5057379;28;20086;-51
2023/12/10 19:46:09;;;;;;;51.63;25.67;;;2.70;99.90;;;;;;5055620;28;20056;-51
2023/12/10 19:48:36;;;;;;;54.05;24.50;;;2.70;99.90;;;;;;5054797;28;20082;-48
2023/12/10 19:51:02;;;;;;;50.78;24.02;;;2.70;99.90;;;;;;5057119;28;20417;-50
2023/12/10 19:53:27;;;;;;;46.57;21.00;;;2.70;99.90;;;;;;5037934;28;20028;-54
2023/12/10 19:55:53;;;;;;;50.85;21.10;;;2.80;99.90;;;;;;5055502;28;20025;-50
2023/12/10 19:58:19;;;;;;;49.95;21.23;;;2.80;99.90;;;;;;5056179;28;20063;-51
2023/12/10 20:00:48;;;;;;;48.60;19.02;;;2.80;99.90;;;;;;5054517;28;20025;-52
2023/12/10 20:03:13;;;;;;;50.85;19.77;;;2.90;99.90;;;;;;5037743;28;20812;-51
2023/12/10 20:05:39;;;;;;;36.70;16.77;;;3.00;99.90;;;;;;5055957;28;20048;-50
2023/12/10 20:08:05;;;;;;;41.63;18.17;;;3.00;99.90;;;;;;5055205;28;20413;-49
2023/12/10 20:10:31;;;;;;;45.92;18.27;;;3.00;99.90;;;;;;5055448;28;20532;-50
2023/12/10 20:12:58;;;;;;;33.75;16.80;;;3.10;99.90;;;;;;5056865;28;20108;-51
2023/12/10 20:15:23;;;;;;;38.97;16.23;;;3.10;99.90;;;;;;5054588;28;20540;-50
2023/12/10 20:17:49;;;;;;;40.40;17.00;;;3.00;99.90;;;;;;5055492;28;20040;-52
2023/12/10 20:20:17;;;;;;;41.33;17.70;;;3.10;99.90;;;;;;5056538;28;20024;-51
2023/12/10 20:22:44;;;;;;;41.53;18.05;;;3.10;99.90;;;;;;5054193;28;20044;-53
2023/12/10 20:25:12;;;;;;;37.60;18.23;;;3.10;99.90;;;;;;5055617;28;20024;-52
2023/12/10 20:27:38;;;;;;;39.50;16.58;;;3.10;99.90;;;;;;5056520;28;20040;-53
2023/12/10 20:30:05;;;;;;;38.40;17.10;;;3.10;99.90;;;;;;5053462;28;20523;-51
2023/12/10 20:32:31;;;;;;;37.38;15.93;;;3.10;99.90;;;;;;5037068;28;20029;-51
2023/12/10 20:35:00;;;;;;;40.63;17.02;;;3.00;99.90;;;;;;5054427;28;20029;-53
2023/12/10 20:37:25;;;;;;;39.05;15.63;;;3.10;99.90;;;;;;5054578;28;20530;-53
2023/12/10 20:39:52;;;;;;;43.80;16.08;;;3.10;99.90;;;;;;5055430;28;20016;-52
2023/12/10 20:42:17;;;;;;;37.25;17.30;;;3.00;99.90;;;;;;5056257;28;20032;-53
2023/12/10 20:44:43;;;;;;;41.10;15.63;;;3.10;99.90;;;;;;5055263;28;20040;-51
2023/12/10 20:47:10;;;;;;;38.83;16.38;;;3.00;99.90;;;;;;5054917;28;20029;-52
2023/12/10 20:49:39;;;;;;;42.85;15.80;;;3.00;99.90;;;;;;5054496;28;20103;-51
2023/12/10 20:52:05;;;;;;;43.05;16.17;;;3.00;99.90;;;;;;5054352;28;20603;-50
2023/12/10 20:54:31;;;;;;;39.95;17.85;;;3.00;99.90;;;;;;5054941;28;20032;-52
2023/12/10 20:56:57;;;;;;;37.13;18.10;;;3.10;99.90;;;;;;5055732;28;20083;-55
2023/12/10 20:59:22;;;;;;;40.33;15.90;;;3.10;99.90;;;;;;5054150;28;20773;-52
2023/12/10 21:01:48;;;;;;;42.70;15.13;;;3.10;99.90;;;;;;5055295;28;20079;-50
2023/12/10 21:04:14;;;;;;;38.92;15.48;;;3.10;99.90;;;;;;5055848;28;20102;-49
2023/12/10 21:06:40;;;;;;;33.20;14.52;;;3.20;99.90;;;;;;5053568;28;20025;-52
2023/12/10 21:09:10;;;;;;;33.25;15.27;;;3.20;99.90;;;;;;5055375;28;20021;-51
2023/12/10 21:11:36;;;;;;;47.40;16.67;;;3.20;99.90;;;;;;5055261;28;20539;-51
2023/12/10 21:14:03;;;;;;;40.08;15.05;;;3.30;99.90;;;;;;5053280;28;20103;-50
2023/12/10 21:16:29;;;;;;;43.80;16.58;;;3.30;99.90;;;;;;5054406;28;20044;-49
2023/12/10 21:18:55;;;;;;;30.67;14.17;;;3.30;99.90;;;;;;5055582;28;20054;-49
2023/12/10 21:21:21;;;;;;;36.60;14.38;;;3.30;99.90;;;;;;5054078;28;20024;-51
2023/12/10 21:23:46;;;;;;;38.85;15.85;;;3.20;99.90;;;;;;5055836;28;20356;-51
2023/12/10 21:26:12;;;;;;;35.55;14.73;;;3.20;99.90;;;;;;5055302;28;20111;-51
2023/12/10 21:28:38;;;;;;;35.75;14.88;;;3.30;99.90;;;;;;5045513;28;20290;-53
2023/12/10 21:31:06;;;;;;;42.88;14.80;;;3.30;99.90;;;;;;5048722;28;20039;-50
2023/12/10 21:33:32;;;;;;;36.95;14.25;;;3.30;99.90;;;;;;5064779;28;20067;-52
2023/12/10 21:35:58;;;;;;;45.17;16.13;;;3.30;99.90;;;;;;5057910;28;20033;-51
2023/12/10 21:38:23;;;;;;;39.53;15.57;;;3.40;99.90;;;;;;5044782;28;20114;-52
2023/12/10 21:40:49;;;;;;;45.03;17.00;;;3.40;99.90;;;;;;5043779;28;20040;-55
2023/12/10 21:43:15;;;;;;;42.95;16.95;;;3.60;99.90;;;;;;5046505;28;20566;-54
2023/12/10 21:45:40;;;;;;;34.50;14.98;;;3.60;99.90;;;;;;5048995;28;20036;-52
2023/12/10 21:48:06;;;;;;;30.80;11.80;;;3.60;99.90;;;;;;5049157;28;20016;-51
2023/12/10 21:50:32;;;;;;;42.70;13.75;;;3.60;99.90;;;;;;5048651;28;20411;-51
2023/12/10 21:52:59;;;;;;;30.85;12.52;;;3.60;99.90;;;;;;5075105;28;20036;-52
2023/12/10 21:55:24;;;;;;;36.95;12.88;;;3.70;99.90;;;;;;5088897;28;20554;-52
2023/12/10 21:57:50;;;;;;;42.28;14.88;;;3.80;99.90;;;;;;5088828;28;20162;-50
2023/12/10 22:00:16;;;;;;;37.00;14.23;;;3.70;99.90;;;;;;5088768;28;20028;-52
2023/12/10 22:02:42;;;;;;;35.08;12.68;;;3.80;99.90;;;;;;5087771;28;20045;-51
2023/12/10 22:05:08;;;;;;;35.70;14.55;;;3.80;99.90;;;;;;5087388;28;20028;-49
2023/12/10 22:07:35;;;;;;;35.88;13.95;;;3.80;99.90;;;;;;5070108;28;20025;-50
2023/12/10 22:10:03;;;;;;;32.80;13.23;;;3.80;99.90;;;;;;5048429;28;20052;-53
2023/12/10 22:12:29;;;;;;;27.77;11.32;;;3.90;99.90;;;;;;5048063;28;20476;-51
2023/12/10 22:14:55;;;;;;;34.67;12.57;;;3.80;99.90;;;;;;5048803;28;20064;-52
2023/12/10 22:17:20;;;;;;;33.80;13.43;;;3.80;99.90;;;;;;5048257;28;20040;-52
2023/12/10 22:19:46;;;;;;;40.78;13.40;;;3.80;99.90;;;;;;5048552;28;20037;-52
2023/12/10 22:22:12;;;;;;;37.25;13.82;;;3.70;99.90;;;;;;5048430;28;20460;-52
2023/12/10 22:24:37;;;;;;;30.95;12.57;;;3.80;99.90;;;;;;5048087;28;20029;-50
2023/12/10 22:27:03;;;;;;;38.35;15.13;;;3.70;99.90;;;;;;5048142;28;20705;-50
2023/12/10 22:29:30;;;;;;;30.85;13.02;;;3.80;99.90;;;;;;5048185;28;20055;-51
2023/12/10 22:31:56;;;;;;;36.78;13.00;;;3.80;99.90;;;;;;5048299;28;20025;-51
2023/12/10 22:34:21;;;;;;;33.60;12.60;;;3.80;99.90;;;;;;5048134;28;20037;-49
2023/12/10 22:36:47;;;;;;;32.08;12.35;;;3.80;99.90;;;;;;5047457;28;20052;-50
2023/12/10 22:39:13;;;;;;;39.03;12.80;;;3.80;99.90;;;;;;5048136;28;20603;-51
2023/12/10 22:41:39;;;;;;;37.50;12.77;;;3.80;99.90;;;;;;5048258;28;20378;-54
2023/12/10 22:44:04;;;;;;;34.80;12.30;;;3.80;99.90;;;;;;5047855;28;20052;-53
2023/12/10 22:46:30;;;;;;;30.00;10.68;;;3.80;99.90;;;;;;5047526;28;20029;-52
2023/12/10 22:48:56;;;;;;;32.15;10.93;;;3.80;99.90;;;;;;5048663;28;20056;-53
2023/12/10 22:51:22;;;;;;;35.97;12.73;;;3.70;99.90;;;;;;5047928;28;20473;-53
2023/12/10 22:53:48;;;;;;;37.03;13.25;;;3.70;99.90;;;;;;5047686;28;20029;-51
2023/12/10 22:56:13;;;;;;;32.80;13.40;;;3.70;99.90;;;;;;5047677;28;20459;-49
2023/12/10 22:58:39;;;;;;;44.65;15.80;;;3.60;99.90;;;;;;5047333;28;20200;-51
2023/12/10 23:01:05;;;;;;;40.08;15.52;;;3.60;99.90;;;;;;5047672;28;20064;-53
2023/12/10 23:03:31;;;;;;;46.80;16.77;;;3.60;99.90;;;;;;5047885;28;20123;-50
2023/12/10 23:05:56;;;;;;;37.95;16.50;;;3.50;99.90;;;;;;5047488;28;20460;-51
2023/12/10 23:08:22;;;;;;;46.03;17.85;;;3.50;99.90;;;;;;5047271;28;20175;-53
2023/12/10 23:10:48;;;;;;;42.92;16.23;;;3.50;99.90;;;;;;5047231;28;20041;-52
2023/12/10 23:13:13;;;;;;;41.42;15.85;;;3.50;99.90;;;;;;5047408;28;20033;-52
2023/12/10 23:15:39;;;;;;;34.97;13.50;;;3.50;99.90;;;;;;5047398;28;20090;-54
2023/12/10 23:18:05;;;;;;;43.50;15.18;;;3.60;99.90;;;;;;5047241;28;20098;-53
2023/12/10 23:20:31;;;;;;;34.88;13.90;;;3.50;99.90;;;;;;5047127;28;20743;-50
2023/12/10 23:22:57;;;;;;;34.08;13.38;;;3.60;99.90;;;;;;5029254;28;20032;-52
2023/12/10 23:25:22;;;;;;;34.80;15.65;;;3.60;99.90;;;;;;5047342;28;20052;-51
2023/12/10 23:27:48;;;;;;;38.60;13.45;;;3.60;99.90;;;;;;5047467;28;20028;-52
2023/12/10 23:30:14;;;;;;;30.20;11.43;;;3.60;99.90;;;;;;5047253;28;20400;-53
2023/12/10 23:32:39;;;;;;;39.00;12.85;;;3.60;99.90;;;;;;5046711;28;20374;-53
